LTAG/ADF METAR and TAF weather

Enter ICAO airport designator
Station Type Date Time Source
LTAG METAR 2021/05/10 01:50 UTC NOAA

LTAG 100150Z 03018KT CAVOK 18/M03 Q1010 NOSIG


Station Type Date Time Source
LTAG Decoded METAR 2021/05/10 01:50 UTC NOAA

Adana / Incirlik, Turkey (LTAG) 37-00N 035-25E 66M
May 09, 2021 - 09:50 PM EDT / 2021.05.10 0150 UTC
Wind: from the NNE (030 degrees) at 21 MPH (18 KT):0
Visibility: greater than 7 mile(s):0
Temperature: 64 F (18 C)
Dew Point: 26 F (-3 C)
Relative Humidity: 23%
Pressure (altimeter): 29.83 in. Hg (1010 hPa)
ob: LTAG 100150Z 03018KT CAVOK 18/M03 Q1010 NOSIG
cycle: 2

Station Type Date Time Source
LTAG TAF 2021/05/09 18:03 UTC NOAA

TAF TAF LTAG 091640Z 0918/1018 03014KT CAVOK
TEMPO 0920/0924 02018G28KT
TEMPO 1000/1004 02015G25KT

Example: see airport list